DIRECCIÓN GENERAL DE AERONÁUTICA CIVIL
DIRECCIÓN METEOROLÓGICA DE CHILE
INFORMACIÓN METAR Y TAF

FIR PUERTO MONTT

Estación: SCQP
METAR SCQP 280600Z VRB02KT CAVOK 07/06 Q1016=

TAF SCQP 280440Z 2806/2906 VRB01KT 9999 SCT020 TN06/2810Z TX18/2819Z PROB30 TEMPO 2807/2811 3000 -DZ BKN007 BECMG 2814/2816 30008KT BKN025 BECMG 2821/2823 26004KT 8000 -SHRA=

Estación: SCVD
METAR SCVD 280600Z AUTO 00000KT //// R35///// // NCD 06/06 Q1015=

TAF SCVD 271630Z 2718/2806 30007KT 9999 BKN030 TX17/2719Z TN12/2806Z BECMG 2723/2801 36005KT OVC010=

Estación: SCJO
METAR SCJO 272200Z 34004KT 9999 BKN030 SCT070 17/09 Q1016=

TAF SCJO 271630Z 2718/2806 34005KT 9999 BKN030 TX16/2719Z TN11/2806Z=

Estación: SCTE
METAR SCTE 280600Z 36009KT 7000 VCSH SCT015 BKN025 12/10 Q1014 NOSIG=

TAF SCTE 280440Z 2806/2906 33007KT 7000 -SHRA BKN030 TN09/2810Z TX14/ 2819Z BECMG 2820/2822 23010KT BECMG 2902/2904 9999 NSW=

Estación: SCPQ
METAR SCPQ 280600Z AUTO 35007KT 9000 BKN002 OVC006 11/10 Q1012=

TAF SCPQ 271650Z 2718/2806 33012KT 9999 BKN020 BKN050 TX14/2719Z TN10 /2806Z=

Estación: SCON
METAR SCON 280600Z AUTO VRB01KT 7000 SKC 09/09 Q////=

TAF SCON 271630Z 2718/2806 34010KT 9999 OVC010 TX15/2719Z TN10/2806Z BECMG2719/2721 7000 RA BECMG 2804/2806 9999 NSW BKN017=

Estación: SCTN
SPECI SCTN 280622Z AUTO 35011KT 6000 -RA BKN004 OVC014 12/11 Q1012=

NIL=

Estación: SCFT
METAR SCFT 280600Z AUTO VRB02KT CAVOK 08/07 Q1011=

NIL=

Estación: SCAP
METAR SCAP 280600Z AUTO VRB01KT //// // FEW019 09/07 Q1016=

NIL=

Estación: SCMK
METAR SCMK 272100Z 02015KT 4000 -RA OVC006 11/10 Q1012=

TAF SCMK 271630Z 2718/2806 36015KT 9999 OVC009 TX12/2819Z TN10/2806Z TEMPO 2718/2722 6000 RA BECMG 2803/2805 BKN040=

Estación: SCAS
METAR SCAS 272000Z 25011KT 8000 -SHRA SCT015 BKN033 11/10 Q1011=

NIL=

Estación: SCCY
METAR SCCY 280000Z 32002KT 9999 BKN036 13/06 Q1008=

TAF SCCY 271630Z 2718/2806 30015KT 9999 BKN030 TX17/2719Z TN10/2806Z PROB30 TEMPO 2722/2802 7000 -SHRA=

Estación: SCBA
METAR SCBA 280600Z AUTO 30009KT 9999 BKN050 08/04 Q1006=

TAF SCBA 280440Z 2806/2906 30018KT 9999 SCT040 TN05/2809Z TX14/2818Z BECMG 2813/2815 BKN060 BECMG 2817/2819 30023G35KT CAVOK BECMG 2902/ 2904 29014KT=

Estación: SCCC
METAR SCCC 272000Z 28016G26KT 9999 BKN040 19/02 Q1005=

NIL=

Estación: SCHR
METAR SCHR 272000Z 29009KT 9999 BKN040 18/05 Q1001=

TAF SCHR 271053Z 2712/2800 32007KT 9999 SCT040 TN09/2712Z TX18/2718Z=


Volver